createdAt,value
2023-05-23T00:02:15.368Z,5.60
2023-05-23T00:04:42.457Z,8.60
2023-05-23T00:07:09.957Z,6.60
2023-05-23T00:09:36.984Z,7.60
2023-05-23T00:12:04.260Z,7.40
2023-05-23T00:14:33.332Z,7.30
2023-05-23T00:17:04.712Z,5.70
2023-05-23T00:19:35.802Z,7.40
2023-05-23T00:22:02.894Z,6.30
2023-05-23T00:24:29.752Z,7.50
2023-05-23T00:26:58.430Z,7.90
2023-05-23T00:29:25.378Z,7.60
2023-05-23T00:31:52.372Z,6.30
2023-05-23T00:34:19.918Z,6.30
2023-05-23T00:36:47.168Z,7.90
2023-05-23T00:39:18.700Z,6.10
2023-05-23T00:41:51.856Z,6.90
2023-05-23T00:44:20.874Z,7.70
2023-05-23T00:46:53.334Z,7.90
2023-05-23T00:49:21.330Z,7.00
2023-05-23T00:51:49.089Z,8.70
2023-05-23T00:54:20.537Z,6.60
2023-05-23T00:56:48.230Z,7.50
2023-05-23T00:59:16.212Z,9.60
2023-05-23T01:01:46.209Z,7.70
2023-05-23T01:04:13.860Z,6.40
2023-05-23T01:06:41.125Z,6.60
2023-05-23T01:09:09.188Z,6.30
2023-05-23T01:11:50.224Z,7.50
2023-05-23T01:14:30.213Z,6.20
2023-05-23T01:17:17.407Z,6.80
2023-05-23T01:20:02.300Z,7.50
2023-05-23T01:22:45.866Z,7.10
2023-05-23T01:25:35.774Z,5.40
2023-05-23T01:28:07.373Z,6.40
2023-05-23T01:30:39.325Z,6.20
2023-05-23T01:33:08.284Z,7.20
2023-05-23T01:35:36.430Z,7.60
2023-05-23T01:38:03.542Z,7.90
2023-05-23T01:40:30.430Z,6.90
2023-05-23T01:42:57.916Z,6.60
2023-05-23T01:45:27.711Z,7.70
2023-05-23T01:50:24.077Z,7.00
2023-05-23T01:52:51.926Z,7.70
2023-05-23T01:55:27.541Z,6.60
2023-05-23T01:57:56.593Z,7.00
2023-05-23T02:00:23.830Z,6.20
2023-05-23T02:02:50.964Z,7.00
2023-05-23T02:05:17.986Z,6.10
2023-05-23T02:07:44.853Z,6.30
2023-05-23T02:10:12.039Z,7.20
2023-05-23T02:12:39.075Z,6.60
2023-05-23T02:15:07.080Z,8.40
2023-05-23T02:17:34.051Z,6.90
2023-05-23T02:20:01.057Z,7.10
2023-05-23T02:22:28.025Z,6.90
2023-05-23T02:24:54.867Z,7.10
2023-05-23T02:27:21.834Z,7.10
2023-05-23T02:29:48.749Z,6.40
2023-05-23T02:32:15.780Z,8.20
2023-05-23T02:34:46.242Z,8.10
2023-05-23T02:37:14.274Z,8.60
2023-05-23T02:39:41.200Z,7.50
2023-05-23T02:42:08.449Z,11.00
2023-05-23T02:44:35.460Z,7.90
2023-05-23T02:47:02.388Z,6.70
2023-05-23T02:49:29.341Z,7.30
2023-05-23T02:51:56.192Z,6.80
2023-05-23T02:54:23.088Z,11.80
2023-05-23T02:56:51.832Z,7.60
2023-05-23T02:59:18.760Z,9.00
2023-05-23T03:01:45.748Z,10.60
2023-05-23T03:04:13.286Z,7.40
2023-05-23T03:06:41.718Z,10.70
2023-05-23T03:09:09.698Z,8.00
2023-05-23T03:11:37.125Z,8.40
2023-05-23T03:14:04.046Z,8.50
2023-05-23T03:16:31.474Z,6.80
2023-05-23T03:18:58.540Z,7.90
2023-05-23T03:21:25.542Z,7.60
2023-05-23T03:23:52.599Z,7.60
2023-05-23T03:26:21.443Z,8.60
2023-05-23T03:28:49.306Z,8.90
2023-05-23T03:31:16.919Z,6.90
2023-05-23T03:33:43.973Z,8.10
2023-05-23T03:36:11.002Z,6.80
2023-05-23T03:38:38.249Z,7.80
2023-05-23T03:41:05.463Z,7.90
2023-05-23T03:43:32.387Z,7.60
2023-05-23T03:45:59.442Z,6.90
2023-05-23T03:48:26.589Z,7.60
2023-05-23T03:50:53.737Z,8.60
2023-05-23T03:53:20.720Z,9.60
2023-05-23T03:55:47.698Z,8.50
2023-05-23T03:58:14.698Z,9.40
2023-05-23T04:00:41.699Z,7.20
2023-05-23T04:03:10.279Z,8.10
2023-05-23T04:05:37.323Z,6.70
2023-05-23T04:08:04.471Z,6.70
2023-05-23T04:10:31.461Z,7.00
2023-05-23T04:12:58.448Z,7.40
2023-05-23T04:15:25.453Z,7.80
2023-05-23T04:17:52.780Z,8.60
2023-05-23T04:20:19.765Z,6.00
2023-05-23T04:22:46.663Z,8.90
2023-05-23T04:25:13.688Z,7.10
2023-05-23T04:27:41.003Z,7.60
2023-05-23T04:30:11.150Z,7.90
2023-05-23T04:32:38.514Z,7.80
2023-05-23T04:35:05.925Z,7.60
2023-05-23T04:37:34.729Z,7.10
2023-05-23T04:40:01.758Z,7.00
2023-05-23T04:42:28.900Z,9.40
2023-05-23T04:44:58.516Z,7.80
2023-05-23T04:49:57.250Z,7.80
2023-05-23T04:52:24.992Z,7.40
2023-05-23T04:54:53.519Z,6.40
2023-05-23T04:57:20.505Z,7.60
2023-05-23T04:59:47.391Z,6.30
2023-05-23T05:02:14.341Z,7.40
2023-05-23T05:04:41.448Z,9.10
2023-05-23T05:07:08.349Z,8.70
2023-05-23T05:09:36.129Z,7.40
2023-05-23T05:12:03.242Z,6.70
2023-05-23T05:14:30.675Z,8.50
2023-05-23T05:16:57.871Z,7.10
2023-05-23T05:19:24.920Z,8.20
2023-05-23T05:21:52.086Z,7.00
2023-05-23T05:24:20.533Z,9.20
2023-05-23T05:26:48.706Z,6.50
2023-05-23T05:29:16.542Z,9.50
2023-05-23T05:31:44.712Z,7.80
2023-05-23T05:34:12.197Z,6.70
2023-05-23T05:36:45.343Z,7.70
2023-05-23T05:39:13.325Z,8.80
2023-05-23T05:41:40.391Z,5.80
2023-05-23T05:44:08.208Z,9.40
2023-05-23T05:46:35.286Z,8.20
2023-05-23T05:49:02.543Z,8.60
2023-05-23T05:51:29.387Z,8.30
2023-05-23T05:53:56.360Z,8.30
2023-05-23T05:56:23.259Z,7.40
2023-05-23T05:58:50.145Z,6.60
2023-05-23T06:01:17.124Z,7.00
2023-05-23T06:03:44.205Z,7.60
2023-05-23T06:06:11.525Z,7.60
2023-05-23T06:08:38.999Z,6.20
2023-05-23T06:11:06.082Z,8.00
2023-05-23T06:13:33.523Z,7.80
2023-05-23T06:16:00.788Z,7.50
2023-05-23T06:18:27.737Z,7.30
2023-05-23T06:20:54.613Z,6.40
2023-05-23T06:23:21.583Z,7.50
2023-05-23T06:25:48.494Z,5.90
2023-05-23T06:28:15.556Z,7.10
2023-05-23T06:30:42.815Z,6.20
2023-05-23T06:33:11.342Z,7.80
2023-05-23T06:35:38.202Z,6.30
2023-05-23T06:38:05.220Z,5.80
2023-05-23T06:40:32.085Z,8.40
2023-05-23T06:42:58.978Z,6.90
2023-05-23T06:45:25.981Z,5.80
2023-05-23T06:47:52.873Z,9.80
2023-05-23T06:50:19.722Z,7.50
2023-05-23T06:52:46.796Z,6.80
2023-05-23T06:55:17.664Z,7.30
2023-05-23T06:57:45.218Z,9.20
2023-05-23T07:00:13.376Z,9.30
2023-05-23T07:02:40.392Z,7.40
2023-05-23T07:05:07.776Z,6.00
2023-05-23T07:07:34.771Z,11.10
2023-05-23T07:10:01.697Z,8.50
2023-05-23T07:12:28.596Z,10.50
2023-05-23T07:14:55.501Z,11.30
2023-05-23T07:17:22.426Z,7.60
2023-05-23T07:19:49.350Z,7.50
2023-05-23T07:22:16.352Z,17.40
2023-05-23T07:24:43.277Z,9.80
2023-05-23T07:27:10.090Z,9.20
2023-05-23T07:29:37.027Z,5.30
2023-05-23T07:32:04.271Z,8.30
2023-05-23T07:34:31.248Z,6.60
2023-05-23T07:36:58.125Z,6.90
2023-05-23T07:39:25.501Z,8.00
2023-05-23T07:41:52.519Z,8.80
2023-05-23T07:44:21.169Z,6.70
2023-05-23T07:46:50.404Z,7.50
2023-05-23T07:49:17.494Z,7.80
2023-05-23T07:51:44.449Z,7.70
2023-05-23T07:54:11.356Z,5.40
2023-05-23T07:56:38.868Z,7.40
2023-05-23T07:59:05.743Z,8.30
2023-05-23T08:01:32.638Z,6.70
2023-05-23T08:03:59.718Z,7.90
2023-05-23T08:06:26.884Z,6.90
2023-05-23T08:08:53.843Z,5.70
2023-05-23T08:11:20.770Z,6.80
2023-05-23T08:13:47.657Z,5.40
2023-05-23T08:16:15.208Z,5.70
2023-05-23T08:18:42.229Z,9.40
2023-05-23T08:21:09.184Z,7.20
2023-05-23T08:23:36.279Z,7.80
2023-05-23T08:26:03.251Z,6.40
2023-05-23T08:28:30.120Z,5.70
2023-05-23T08:30:57.430Z,5.20
2023-05-23T08:33:24.362Z,7.60
2023-05-23T08:35:51.588Z,5.80
2023-05-23T08:38:21.513Z,5.40
2023-05-23T08:40:53.850Z,6.00
2023-05-23T08:43:21.028Z,6.10
2023-05-23T08:45:51.326Z,4.90
2023-05-23T08:48:19.875Z,6.50
2023-05-23T08:50:48.086Z,8.80
2023-05-23T08:53:20.022Z,5.80
2023-05-23T08:55:51.134Z,4.70
2023-05-23T08:58:22.081Z,6.80
2023-05-23T09:00:51.775Z,5.90
2023-05-23T09:03:18.979Z,6.60
2023-05-23T09:05:47.053Z,5.40
2023-05-23T09:08:14.807Z,8.40
2023-05-23T09:10:42.673Z,6.30
2023-05-23T09:13:09.978Z,6.40
2023-05-23T09:15:37.231Z,7.90
2023-05-23T09:18:04.258Z,5.80
2023-05-23T09:20:31.173Z,5.60
2023-05-23T09:22:58.084Z,5.70
2023-05-23T09:25:25.197Z,6.10
2023-05-23T09:27:53.976Z,5.30
2023-05-23T09:30:21.544Z,8.30
2023-05-23T09:33:03.933Z,6.60
2023-05-23T09:35:32.446Z,6.50
2023-05-23T09:38:01.128Z,6.60
2023-05-23T09:40:32.524Z,5.30
2023-05-23T09:43:07.040Z,5.60
2023-05-23T09:45:34.037Z,5.20
2023-05-23T09:48:01.462Z,5.90
2023-05-23T09:50:33.047Z,7.30
2023-05-23T09:53:00.973Z,7.30
2023-05-23T09:55:28.044Z,7.50
2023-05-23T09:58:00.910Z,5.80
2023-05-23T10:00:28.248Z,5.40
2023-05-23T10:03:11.833Z,7.90
2023-05-23T10:05:56.430Z,5.60
2023-05-23T10:08:39.645Z,7.80
2023-05-23T10:11:16.394Z,6.50
2023-05-23T10:13:44.762Z,4.80
2023-05-23T10:16:24.440Z,5.20
2023-05-23T10:19:02.775Z,7.60
2023-05-23T10:21:36.866Z,8.50
2023-05-23T10:24:04.314Z,5.20
2023-05-23T10:26:31.434Z,7.10
2023-05-23T10:28:59.927Z,5.20
2023-05-23T10:31:28.535Z,6.70
2023-05-23T10:34:05.147Z,5.20
2023-05-23T10:36:51.007Z,6.10
2023-05-23T10:39:43.887Z,6.30
2023-05-23T10:42:31.079Z,9.40
2023-05-23T10:45:24.046Z,7.70
2023-05-23T10:47:52.922Z,5.90
2023-05-23T10:50:41.153Z,6.70
2023-05-23T10:53:10.762Z,5.30
2023-05-23T10:55:37.762Z,5.20
2023-05-23T10:58:30.388Z,7.30
2023-05-23T11:01:01.922Z,5.70
2023-05-23T11:03:34.966Z,7.50
2023-05-23T11:06:03.712Z,9.10
2023-05-23T11:08:46.779Z,8.00
2023-05-23T11:11:15.345Z,6.60
2023-05-23T11:14:02.145Z,8.00
2023-05-23T11:16:39.431Z,6.70
2023-05-23T11:19:27.444Z,5.80
2023-05-23T11:21:57.523Z,6.80
2023-05-23T11:24:49.620Z,5.80
2023-05-23T11:27:19.645Z,6.00
2023-05-23T11:30:17.252Z,5.10
2023-05-23T11:32:53.565Z,6.50
2023-05-23T11:35:21.320Z,6.10
2023-05-23T11:37:48.703Z,7.50
2023-05-23T11:40:36.153Z,7.20
2023-05-23T11:43:08.850Z,7.80
2023-05-23T11:45:37.810Z,7.10
2023-05-23T11:48:08.600Z,4.90
2023-05-23T11:50:44.453Z,6.40
2023-05-23T11:53:12.671Z,7.00
2023-05-23T11:55:41.304Z,9.20
2023-05-23T11:58:09.039Z,11.30
2023-05-23T12:00:43.416Z,7.00
2023-05-23T12:03:11.429Z,7.40
2023-05-23T12:05:38.499Z,6.00
2023-05-23T12:08:05.866Z,5.10
2023-05-23T12:10:33.659Z,10.00
2023-05-23T12:13:00.810Z,6.40
2023-05-23T12:15:30.034Z,7.50
2023-05-23T12:17:57.797Z,5.50
2023-05-23T12:20:26.095Z,6.00
2023-05-23T12:22:54.110Z,9.70
2023-05-23T12:25:22.746Z,7.30
2023-05-23T12:27:49.676Z,10.10
2023-05-23T12:30:16.949Z,7.60
2023-05-23T12:32:46.185Z,8.70
2023-05-23T12:35:15.526Z,7.50
2023-05-23T12:37:46.339Z,8.40
2023-05-23T12:40:18.035Z,9.90
2023-05-23T12:42:53.837Z,13.80
2023-05-23T12:45:34.120Z,10.80
2023-05-23T12:48:01.761Z,9.60
2023-05-23T12:50:29.373Z,7.50
2023-05-23T12:52:56.531Z,7.60
2023-05-23T12:55:23.474Z,9.80
2023-05-23T12:57:50.818Z,7.80
2023-05-23T13:00:18.975Z,7.30
2023-05-23T13:02:46.148Z,11.00
2023-05-23T13:05:13.611Z,8.10
2023-05-23T13:07:40.765Z,11.20
2023-05-23T13:10:08.401Z,8.90
2023-05-23T13:12:35.437Z,7.60
2023-05-23T13:15:02.408Z,6.30
2023-05-23T13:17:29.467Z,6.50
2023-05-23T13:19:57.231Z,8.50
2023-05-23T13:22:24.228Z,6.90
2023-05-23T13:24:51.842Z,7.90
2023-05-23T13:27:18.761Z,8.70
2023-05-23T13:29:45.689Z,6.20
2023-05-23T13:32:12.635Z,6.20
2023-05-23T13:34:39.538Z,7.70
2023-05-23T13:37:06.674Z,6.10
2023-05-23T13:39:33.677Z,6.80
2023-05-23T13:42:00.550Z,4.60
2023-05-23T13:44:28.354Z,6.00
2023-05-23T13:46:57.900Z,4.80
2023-05-23T13:49:24.867Z,6.70
2023-05-23T13:51:51.777Z,4.20
2023-05-23T13:54:18.774Z,3.70
2023-05-23T13:57:08.561Z,3.50
2023-05-23T13:59:35.840Z,3.40
2023-05-23T14:02:03.104Z,3.10
2023-05-23T14:04:30.226Z,3.20
2023-05-23T14:06:57.404Z,3.90
2023-05-23T14:09:24.415Z,5.80
2023-05-23T14:11:51.826Z,3.80
2023-05-23T14:14:18.842Z,3.40
2023-05-23T14:16:46.261Z,6.00
2023-05-23T14:19:13.285Z,4.50
2023-05-23T14:21:41.792Z,3.90
2023-05-23T14:24:10.780Z,4.40
2023-05-23T14:26:38.134Z,4.00
2023-05-23T14:29:05.145Z,4.80
2023-05-23T14:31:32.090Z,3.00
2023-05-23T14:33:59.022Z,3.30
2023-05-23T14:36:27.577Z,3.80
2023-05-23T14:38:54.698Z,3.60
2023-05-23T14:41:22.373Z,5.30
2023-05-23T14:43:49.591Z,5.70
2023-05-23T14:46:17.699Z,5.80
2023-05-23T14:48:44.653Z,4.90
2023-05-23T14:51:16.441Z,5.10
2023-05-23T14:53:50.882Z,2.90
2023-05-23T14:56:17.968Z,6.10
2023-05-23T14:58:45.458Z,3.80
2023-05-23T15:01:13.210Z,3.20
2023-05-23T15:03:40.820Z,3.40
2023-05-23T15:06:07.964Z,6.20
2023-05-23T15:08:35.300Z,5.30
2023-05-23T15:11:02.261Z,6.10
2023-05-23T15:13:29.259Z,4.20
2023-05-23T15:15:56.303Z,4.10
2023-05-23T15:18:38.925Z,3.90
2023-05-23T15:21:07.322Z,4.00
2023-05-23T15:23:34.337Z,4.90
2023-05-23T15:26:01.280Z,3.20
2023-05-23T15:28:28.183Z,3.20
2023-05-23T15:30:56.689Z,3.60
2023-05-23T15:33:23.661Z,3.80
2023-05-23T15:35:51.196Z,9.50
2023-05-23T15:38:20.216Z,5.60
2023-05-23T15:40:48.225Z,4.10
2023-05-23T15:43:15.218Z,4.80
2023-05-23T15:45:42.424Z,3.40
2023-05-23T15:48:09.465Z,6.10
2023-05-23T15:50:36.418Z,3.90
2023-05-23T15:53:03.561Z,4.50
2023-05-23T15:55:30.523Z,2.90
2023-05-23T15:57:57.454Z,4.70
2023-05-23T16:00:24.702Z,5.20
2023-05-23T16:02:51.593Z,4.20
2023-05-23T16:05:18.636Z,4.30
2023-05-23T16:07:45.593Z,3.80
2023-05-23T16:10:13.822Z,4.00
2023-05-23T16:12:41.098Z,5.90
2023-05-23T16:15:08.603Z,4.60
2023-05-23T16:17:35.548Z,4.60
2023-05-23T16:20:03.704Z,5.80
2023-05-23T16:22:30.795Z,5.90
2023-05-23T16:24:57.779Z,4.80
2023-05-23T16:27:24.815Z,4.50
2023-05-23T16:29:51.767Z,5.20
2023-05-23T16:32:18.705Z,4.00
2023-05-23T16:34:50.316Z,4.00
2023-05-23T16:37:20.312Z,3.10
2023-05-23T16:39:47.267Z,3.30
2023-05-23T16:42:14.284Z,3.80
2023-05-23T16:44:41.407Z,4.80
2023-05-23T16:47:08.415Z,3.30
2023-05-23T16:49:35.437Z,3.30
2023-05-23T16:52:02.744Z,3.20
2023-05-23T16:54:29.643Z,7.90
2023-05-23T16:56:57.779Z,6.10
2023-05-23T16:59:24.681Z,3.60
2023-05-23T17:01:51.765Z,3.50
2023-05-23T17:04:20.350Z,4.20
2023-05-23T17:06:47.478Z,5.80
2023-05-23T17:09:14.442Z,6.50
2023-05-23T17:11:41.343Z,5.90
2023-05-23T17:14:08.298Z,4.70
2023-05-23T17:16:35.353Z,6.00
2023-05-23T17:19:02.353Z,6.90
2023-05-23T17:21:29.319Z,4.10
2023-05-23T17:23:56.421Z,4.50
2023-05-23T17:26:23.321Z,5.40
2023-05-23T17:28:50.724Z,4.10
2023-05-23T17:31:18.324Z,4.20
2023-05-23T17:33:46.006Z,5.10
2023-05-23T17:36:12.937Z,5.80
2023-05-23T17:38:40.158Z,4.50
2023-05-23T17:41:07.193Z,6.40
2023-05-23T17:43:34.158Z,5.30
2023-05-23T17:46:01.039Z,6.00
2023-05-23T17:48:45.705Z,6.70
2023-05-23T17:51:14.207Z,7.00
2023-05-23T17:53:41.998Z,6.60
2023-05-23T17:56:08.996Z,7.20
2023-05-23T17:58:37.145Z,8.50
2023-05-23T18:01:05.299Z,8.90
2023-05-23T18:03:32.307Z,13.30
2023-05-23T18:05:59.280Z,8.70
2023-05-23T18:08:26.204Z,7.00
2023-05-23T18:10:53.140Z,6.50
2023-05-23T18:13:20.128Z,6.50
2023-05-23T18:15:47.283Z,6.70
2023-05-23T18:18:15.999Z,5.20
2023-05-23T18:20:43.552Z,3.70
2023-05-23T18:23:11.441Z,6.50
2023-05-23T18:25:38.406Z,9.40
2023-05-23T18:28:05.373Z,6.70
2023-05-23T18:30:33.004Z,5.50
2023-05-23T18:33:00.057Z,6.40
2023-05-23T18:35:27.647Z,8.50
2023-05-23T18:37:55.560Z,5.90
2023-05-23T18:40:23.656Z,5.90
2023-05-23T18:42:51.470Z,6.30
2023-05-23T18:45:18.462Z,5.90
2023-05-23T18:47:45.451Z,9.50
2023-05-23T18:50:13.158Z,5.30
2023-05-23T18:52:40.912Z,8.20
2023-05-23T18:58:51.517Z,6.90
2023-05-23T19:01:18.832Z,5.60
2023-05-23T19:03:46.364Z,5.50
2023-05-23T19:06:13.701Z,4.60
2023-05-23T19:08:42.244Z,5.10
2023-05-23T19:11:28.797Z,6.30
2023-05-23T19:14:05.367Z,5.10
2023-05-23T19:16:37.156Z,16.80
2023-05-23T19:19:04.321Z,8.50
2023-05-23T19:21:32.078Z,9.10
2023-05-23T19:23:59.172Z,7.20
2023-05-23T19:26:26.321Z,7.40
2023-05-23T19:29:12.001Z,9.30
2023-05-23T19:34:10.288Z,9.70
2023-05-23T19:37:16.855Z,8.90
2023-05-23T19:39:45.514Z,11.00
2023-05-23T19:42:13.189Z,11.80
2023-05-23T19:44:40.272Z,8.50
2023-05-23T19:47:07.565Z,9.10
2023-05-23T19:49:34.592Z,10.00
2023-05-23T19:52:02.044Z,11.50
2023-05-23T19:54:29.451Z,12.50
2023-05-23T19:56:56.652Z,11.50
2023-05-23T19:59:23.717Z,11.90
2023-05-23T20:01:51.136Z,11.30
2023-05-23T20:04:18.386Z,11.70
2023-05-23T20:06:48.482Z,12.80
2023-05-23T20:09:18.539Z,12.20
2023-05-23T20:11:46.236Z,13.30
2023-05-23T20:14:13.876Z,10.50
2023-05-23T20:16:41.889Z,14.10
2023-05-23T20:19:09.706Z,11.10
2023-05-23T20:21:37.393Z,13.80
2023-05-23T20:24:05.033Z,11.90
2023-05-23T20:26:32.367Z,12.10
2023-05-23T20:28:59.756Z,13.10
2023-05-23T20:31:27.238Z,13.50
2023-05-23T20:34:00.561Z,13.50
2023-05-23T20:36:33.054Z,11.70
2023-05-23T20:39:05.402Z,9.40
2023-05-23T20:41:35.960Z,11.20
2023-05-23T20:44:03.298Z,10.60
2023-05-23T20:46:33.275Z,10.00
2023-05-23T20:49:07.640Z,9.60
2023-05-23T20:51:36.856Z,10.20
2023-05-23T20:54:05.253Z,9.60
2023-05-23T20:56:33.232Z,9.90
2023-05-23T20:59:01.109Z,9.50
2023-05-23T21:01:28.878Z,8.20
2023-05-23T21:03:56.837Z,8.10
2023-05-23T21:06:24.144Z,8.70
2023-05-23T21:08:51.343Z,7.90
2023-05-23T21:11:18.658Z,8.50
2023-05-23T21:13:45.958Z,10.20
2023-05-23T21:16:14.079Z,7.90
2023-05-23T21:18:41.479Z,6.70
2023-05-23T21:21:17.233Z,6.90
2023-05-23T21:23:44.731Z,7.80
2023-05-23T21:26:12.261Z,6.20
2023-05-23T21:28:39.769Z,6.70
2023-05-23T21:31:08.025Z,7.90
2023-05-23T21:33:46.881Z,6.80
2023-05-23T21:36:25.640Z,5.60
2023-05-23T21:38:55.415Z,8.40
2023-05-23T21:41:25.538Z,6.90
2023-05-23T21:43:53.286Z,4.50
2023-05-23T21:46:28.187Z,5.10
2023-05-23T21:49:01.435Z,4.60
2023-05-23T21:52:13.570Z,4.40
2023-05-23T21:54:49.817Z,4.60
2023-05-23T21:57:17.359Z,4.10
2023-05-23T21:59:50.322Z,5.20
2023-05-23T22:02:17.552Z,3.70
2023-05-23T22:04:45.642Z,5.00
2023-05-23T22:07:24.750Z,6.70
2023-05-23T22:09:56.838Z,4.40
2023-05-23T22:12:25.469Z,5.30
2023-05-23T22:14:57.799Z,4.20
2023-05-23T22:17:25.974Z,3.50
2023-05-23T22:19:55.274Z,7.00
2023-05-23T22:22:43.529Z,4.50
2023-05-23T22:25:21.166Z,4.80
2023-05-23T22:27:53.834Z,3.80
2023-05-23T22:30:25.395Z,5.30
2023-05-23T22:33:14.876Z,4.50
2023-05-23T22:35:51.072Z,6.80
2023-05-23T22:38:39.971Z,6.70
2023-05-23T22:41:27.044Z,5.20
2023-05-23T22:43:54.475Z,6.00
2023-05-23T22:46:51.536Z,5.80
2023-05-23T22:50:29.292Z,5.50
2023-05-23T23:02:31.304Z,5.50
2023-05-23T23:05:20.672Z,5.60
2023-05-23T23:11:24.938Z,8.10
2023-05-23T23:39:02.288Z,7.80
2023-05-23T23:41:29.355Z,6.60
2023-05-23T23:43:56.333Z,5.50
2023-05-23T23:46:23.573Z,6.40
2023-05-23T23:48:50.734Z,6.20
2023-05-23T23:51:17.775Z,6.30
2023-05-23T23:53:48.308Z,5.60
2023-05-23T23:56:16.539Z,7.30
2023-05-23T23:58:43.454Z,7.90
